createdAt,value
2023-05-17T00:00:56.984Z,87.24
2023-05-17T00:01:56.969Z,87.41
2023-05-17T00:02:57.017Z,87.61
2023-05-17T00:03:56.960Z,87.76
2023-05-17T00:04:56.986Z,88.17
2023-05-17T00:05:57.008Z,88.27
2023-05-17T00:06:56.918Z,87.96
2023-05-17T00:07:56.941Z,87.61
2023-05-17T00:08:56.893Z,88.47
2023-05-17T00:09:57.033Z,88.33
2023-05-17T00:10:56.896Z,88.94
2023-05-17T00:11:56.866Z,88.74
2023-05-17T00:12:56.884Z,88.53
2023-05-17T00:13:56.837Z,88.33
2023-05-17T00:14:56.828Z,88.53
2023-05-17T00:15:56.817Z,87.82
2023-05-17T00:16:56.811Z,88.12
2023-05-17T00:17:56.869Z,87.82
2023-05-17T00:18:56.899Z,87.85
2023-05-17T00:19:56.821Z,87.51
2023-05-17T00:20:56.753Z,87.96
2023-05-17T00:21:56.746Z,87.96
2023-05-17T00:22:56.754Z,88.06
2023-05-17T00:23:56.738Z,88.06
2023-05-17T00:24:56.714Z,88.06
2023-05-17T00:25:56.784Z,88.27
2023-05-17T00:26:56.710Z,87.65
2023-05-17T00:27:56.676Z,88.27
2023-05-17T00:28:56.663Z,88.47
2023-05-17T00:29:56.654Z,88.37
2023-05-17T00:30:56.642Z,88.78
2023-05-17T00:31:56.658Z,88.37
2023-05-17T00:32:56.675Z,88.98
2023-05-17T00:33:56.607Z,89.09
2023-05-17T00:34:56.647Z,89.09
2023-05-17T00:35:56.622Z,89.09
2023-05-17T00:36:56.587Z,88.98
2023-05-17T00:37:56.586Z,88.78
2023-05-17T00:38:56.564Z,89.09
2023-05-17T00:39:56.542Z,89.09
2023-05-17T00:40:56.540Z,88.88
2023-05-17T00:41:56.545Z,89.09
2023-05-17T00:42:56.527Z,88.98
2023-05-17T00:43:56.498Z,88.78
2023-05-17T00:44:56.497Z,88.88
2023-05-17T00:45:56.468Z,89.09
2023-05-17T00:46:56.479Z,88.88
2023-05-17T00:47:56.586Z,88.68
2023-05-17T00:48:56.456Z,88.57
2023-05-17T00:49:56.445Z,88.57
2023-05-17T00:50:56.441Z,88.68
2023-05-17T00:51:56.402Z,88.78
2023-05-17T00:52:56.399Z,88.98
2023-05-17T00:53:56.387Z,88.88
2023-05-17T00:54:56.413Z,88.78
2023-05-17T00:55:56.381Z,88.92
2023-05-17T00:56:56.357Z,89.03
2023-05-17T00:57:56.610Z,89.13
2023-05-17T00:58:56.355Z,89.50
2023-05-17T00:59:56.330Z,89.60
2023-05-17T01:00:56.304Z,89.81
2023-05-17T01:01:56.309Z,89.50
2023-05-17T01:02:56.381Z,89.50
2023-05-17T01:03:56.327Z,89.29
2023-05-17T01:04:56.292Z,89.29
2023-05-17T01:05:56.242Z,89.50
2023-05-17T01:06:56.248Z,89.60
2023-05-17T01:07:56.225Z,89.60
2023-05-17T01:08:56.222Z,89.70
2023-05-17T01:09:56.209Z,89.50
2023-05-17T01:10:56.190Z,89.70
2023-05-17T01:11:56.180Z,89.09
2023-05-17T01:12:56.202Z,89.19
2023-05-17T01:13:56.262Z,89.09
2023-05-17T01:14:56.173Z,89.50
2023-05-17T01:15:56.134Z,89.50
2023-05-17T01:16:56.117Z,89.70
2023-05-17T01:17:56.149Z,89.25
2023-05-17T01:18:56.320Z,89.29
2023-05-17T01:19:56.146Z,89.39
2023-05-17T01:20:56.082Z,89.56
2023-05-17T01:21:56.056Z,89.39
2023-05-17T01:22:56.116Z,89.56
2023-05-17T01:23:56.038Z,89.56
2023-05-17T01:24:56.058Z,89.50
2023-05-17T01:25:56.032Z,89.39
2023-05-17T01:26:56.008Z,89.04
2023-05-17T01:27:55.995Z,89.36
2023-05-17T01:28:56.009Z,89.50
2023-05-17T01:29:56.128Z,89.50
2023-05-17T01:30:55.964Z,89.60
2023-05-17T01:31:55.950Z,89.66
2023-05-17T01:32:55.995Z,89.29
2023-05-17T01:33:55.931Z,89.09
2023-05-17T01:34:55.934Z,89.04
2023-05-17T01:35:55.925Z,89.56
2023-05-17T01:36:55.899Z,89.81
2023-05-17T01:37:55.903Z,89.76
2023-05-17T01:38:55.884Z,89.50
2023-05-17T01:39:55.870Z,89.39
2023-05-17T01:40:55.861Z,89.81
2023-05-17T01:41:55.832Z,89.50
2023-05-17T01:42:55.825Z,89.09
2023-05-17T01:43:55.830Z,89.19
2023-05-17T01:44:55.801Z,89.15
2023-05-17T01:45:55.894Z,89.25
2023-05-17T01:46:55.774Z,89.50
2023-05-17T01:47:55.853Z,89.60
2023-05-17T01:48:55.835Z,89.70
2023-05-17T01:49:55.744Z,89.45
2023-05-17T01:50:55.740Z,89.50
2023-05-17T01:51:55.733Z,89.50
2023-05-17T01:52:55.714Z,89.70
2023-05-17T01:53:55.706Z,89.81
2023-05-17T01:54:55.691Z,89.90
2023-05-17T01:55:55.683Z,89.81
2023-05-17T01:56:55.692Z,89.70
2023-05-17T01:57:55.651Z,89.70
2023-05-17T01:58:55.640Z,89.50
2023-05-17T01:59:55.627Z,89.81
2023-05-17T02:00:55.637Z,89.54
2023-05-17T02:01:55.707Z,89.75
2023-05-17T02:02:55.631Z,89.64
2023-05-17T02:03:55.586Z,89.43
2023-05-17T02:04:55.658Z,89.50
2023-05-17T02:05:55.560Z,89.54
2023-05-17T02:06:55.560Z,90.26
2023-05-17T02:07:55.542Z,90.16
2023-05-17T02:08:55.533Z,90.46
2023-05-17T02:09:55.525Z,90.26
2023-05-17T02:10:55.508Z,90.67
2023-05-17T02:11:55.517Z,90.67
2023-05-17T02:12:55.481Z,90.56
2023-05-17T02:13:55.482Z,90.67
2023-05-17T02:14:55.461Z,90.46
2023-05-17T02:15:55.469Z,90.46
2023-05-17T02:16:55.447Z,90.46
2023-05-17T02:17:55.649Z,90.56
2023-05-17T02:18:55.532Z,90.36
2023-05-17T02:19:55.404Z,90.56
2023-05-17T02:20:55.403Z,90.56
2023-05-17T02:21:55.382Z,90.67
2023-05-17T02:22:55.375Z,90.87
2023-05-17T02:23:55.363Z,90.77
2023-05-17T02:24:55.390Z,91.12
2023-05-17T02:25:55.345Z,90.56
2023-05-17T02:26:55.351Z,90.91
2023-05-17T02:27:55.328Z,90.71
2023-05-17T02:28:55.322Z,91.02
2023-05-17T02:29:55.317Z,91.22
2023-05-17T02:30:55.288Z,91.22
2023-05-17T02:31:55.269Z,91.22
2023-05-17T02:32:55.344Z,91.67
2023-05-17T02:33:55.493Z,91.53
2023-05-17T02:34:55.266Z,91.22
2023-05-17T02:35:55.241Z,91.12
2023-05-17T02:36:55.220Z,91.22
2023-05-17T02:37:55.206Z,90.71
2023-05-17T02:38:55.194Z,91.02
2023-05-17T02:39:55.211Z,90.65
2023-05-17T02:40:55.193Z,90.81
2023-05-17T02:41:55.155Z,90.91
2023-05-17T02:42:55.147Z,90.65
2023-05-17T02:43:55.132Z,91.06
2023-05-17T02:44:55.126Z,91.37
2023-05-17T02:45:55.161Z,91.67
2023-05-17T02:46:55.161Z,91.67
2023-05-17T02:47:55.148Z,91.16
2023-05-17T02:48:55.092Z,91.27
2023-05-17T02:49:55.080Z,91.27
2023-05-17T02:50:55.056Z,90.75
2023-05-17T02:51:55.059Z,91.37
2023-05-17T02:52:55.038Z,90.85
2023-05-17T02:53:55.026Z,91.16
2023-05-17T02:54:55.071Z,90.65
2023-05-17T02:55:54.993Z,90.85
2023-05-17T02:56:55.008Z,91.10
2023-05-17T02:57:54.978Z,90.85
2023-05-17T02:58:54.963Z,90.69
2023-05-17T02:59:54.948Z,90.80
2023-05-17T03:00:54.965Z,90.75
2023-05-17T03:01:54.928Z,90.69
2023-05-17T03:02:55.005Z,91.00
2023-05-17T03:03:55.152Z,91.20
2023-05-17T03:04:54.954Z,91.00
2023-05-17T03:05:55.111Z,90.59
2023-05-17T03:06:54.907Z,90.38
2023-05-17T03:07:54.860Z,90.69
2023-05-17T03:08:55.071Z,90.89
2023-05-17T03:09:54.856Z,90.80
2023-05-17T03:10:54.828Z,91.10
2023-05-17T03:11:54.819Z,90.89
2023-05-17T03:12:54.804Z,91.10
2023-05-17T03:13:54.794Z,91.10
2023-05-17T03:14:54.840Z,91.14
2023-05-17T03:15:54.787Z,90.94
2023-05-17T03:16:54.775Z,91.35
2023-05-17T03:17:54.769Z,91.14
2023-05-17T03:18:54.927Z,91.04
2023-05-17T03:19:54.774Z,90.73
2023-05-17T03:20:54.727Z,90.53
2023-05-17T03:21:54.905Z,90.73
2023-05-17T03:22:54.700Z,90.83
2023-05-17T03:23:54.699Z,91.14
2023-05-17T03:24:54.694Z,91.04
2023-05-17T03:25:54.683Z,90.53
2023-05-17T03:26:54.648Z,90.67
2023-05-17T03:27:54.758Z,90.42
2023-05-17T03:28:54.645Z,91.08
2023-05-17T03:29:54.614Z,90.83
2023-05-17T03:30:54.666Z,90.98
2023-05-17T03:31:54.593Z,91.08
2023-05-17T03:32:54.641Z,91.29
2023-05-17T03:33:54.663Z,91.08
2023-05-17T03:34:54.573Z,90.98
2023-05-17T03:35:54.545Z,90.88
2023-05-17T03:36:54.610Z,90.47
2023-05-17T03:37:54.678Z,90.88
2023-05-17T03:38:54.515Z,90.67
2023-05-17T03:39:54.498Z,90.78
2023-05-17T03:40:54.515Z,90.36
2023-05-17T03:41:54.477Z,90.67
2023-05-17T03:42:54.506Z,90.67
2023-05-17T03:43:54.455Z,90.88
2023-05-17T03:44:54.444Z,91.08
2023-05-17T03:45:54.429Z,91.29
2023-05-17T03:46:54.434Z,91.08
2023-05-17T03:47:54.466Z,90.81
2023-05-17T03:48:54.499Z,90.67
2023-05-17T03:49:54.389Z,90.92
2023-05-17T03:50:54.393Z,91.13
2023-05-17T03:51:54.363Z,90.88
2023-05-17T03:52:54.370Z,91.13
2023-05-17T03:53:54.434Z,91.13
2023-05-17T03:54:54.344Z,91.23
2023-05-17T03:55:54.319Z,90.98
2023-05-17T03:56:54.323Z,91.02
2023-05-17T03:57:54.324Z,91.53
2023-05-17T03:58:54.281Z,91.13
2023-05-17T03:59:54.278Z,92.11
2023-05-17T04:00:54.264Z,91.49
2023-05-17T04:01:54.254Z,92.73
2023-05-17T04:02:54.286Z,92.42
2023-05-17T04:03:54.267Z,92.42
2023-05-17T04:04:54.246Z,92.32
2023-05-17T04:05:54.221Z,92.42
2023-05-17T04:06:54.218Z,92.21
2023-05-17T04:07:54.213Z,92.21
2023-05-17T04:08:54.200Z,92.32
2023-05-17T04:09:54.538Z,92.38
2023-05-17T04:10:54.154Z,92.32
2023-05-17T04:11:54.144Z,92.32
2023-05-17T04:12:54.125Z,92.48
2023-05-17T04:13:54.166Z,92.21
2023-05-17T04:14:54.120Z,92.32
2023-05-17T04:15:54.099Z,92.11
2023-05-17T04:16:54.080Z,92.11
2023-05-17T04:17:54.132Z,92.07
2023-05-17T04:18:54.153Z,92.27
2023-05-17T04:19:54.163Z,92.07
2023-05-17T04:20:54.040Z,92.48
2023-05-17T04:21:54.030Z,92.58
2023-05-17T04:22:54.022Z,92.27
2023-05-17T04:23:54.011Z,92.38
2023-05-17T04:24:53.996Z,92.17
2023-05-17T04:25:54.115Z,92.38
2023-05-17T04:26:53.977Z,92.38
2023-05-17T04:27:53.982Z,92.58
2023-05-17T04:28:53.966Z,92.27
2023-05-17T04:29:53.940Z,92.27
2023-05-17T04:30:53.929Z,92.38
2023-05-17T04:31:53.911Z,92.38
2023-05-17T04:32:53.998Z,92.27
2023-05-17T04:33:53.916Z,92.27
2023-05-17T04:34:53.888Z,92.07
2023-05-17T04:35:53.904Z,92.48
2023-05-17T04:36:53.870Z,92.48
2023-05-17T04:37:53.854Z,92.48
2023-05-17T04:38:53.829Z,92.69
2023-05-17T04:39:53.837Z,92.58
2023-05-17T04:40:53.822Z,92.79
2023-05-17T04:41:53.921Z,92.95
2023-05-17T04:42:53.795Z,92.89
2023-05-17T04:43:53.796Z,92.89
2023-05-17T04:44:53.794Z,93.10
2023-05-17T04:45:53.759Z,92.69
2023-05-17T04:46:53.760Z,92.89
2023-05-17T04:47:53.850Z,92.17
2023-05-17T04:48:53.829Z,92.13
2023-05-17T04:49:53.722Z,92.44
2023-05-17T04:50:53.700Z,92.13
2023-05-17T04:51:53.698Z,92.13
2023-05-17T04:52:53.679Z,92.23
2023-05-17T04:53:53.729Z,92.33
2023-05-17T04:54:53.671Z,92.33
2023-05-17T04:55:53.649Z,92.33
2023-05-17T04:56:53.629Z,92.33
2023-05-17T04:57:53.716Z,92.33
2023-05-17T04:58:53.622Z,92.33
2023-05-17T04:59:53.614Z,92.23
2023-05-17T05:00:53.587Z,92.23
2023-05-17T05:01:53.575Z,92.40
2023-05-17T05:02:53.585Z,92.19
2023-05-17T05:03:53.620Z,91.99
2023-05-17T05:04:53.591Z,91.99
2023-05-17T05:05:53.531Z,91.67
2023-05-17T05:06:53.518Z,91.67
2023-05-17T05:07:53.507Z,91.57
2023-05-17T05:08:53.493Z,91.88
2023-05-17T05:09:53.494Z,91.78
2023-05-17T05:10:53.488Z,91.12
2023-05-17T05:11:53.461Z,90.71
2023-05-17T05:12:53.447Z,91.08
2023-05-17T05:13:53.536Z,90.87
2023-05-17T05:14:53.428Z,90.62
2023-05-17T05:15:53.434Z,90.52
2023-05-17T05:16:53.426Z,89.25
2023-05-17T05:17:53.523Z,89.87
2023-05-17T05:18:53.560Z,88.80
2023-05-17T05:19:53.501Z,88.70
2023-05-17T05:20:53.357Z,88.24
2023-05-17T05:21:53.348Z,87.84
2023-05-17T05:22:53.342Z,86.81
2023-05-17T05:23:53.335Z,86.67
2023-05-17T05:24:53.339Z,85.85
2023-05-17T05:25:53.336Z,86.51
2023-05-17T05:26:53.289Z,86.71
2023-05-17T05:27:53.280Z,86.61
2023-05-17T05:28:53.278Z,86.16
2023-05-17T05:29:53.349Z,86.26
2023-05-17T05:30:53.450Z,85.40
2023-05-17T05:31:53.244Z,85.91
2023-05-17T05:32:53.352Z,85.30
2023-05-17T05:33:53.270Z,84.99
2023-05-17T05:34:53.195Z,84.65
2023-05-17T05:35:53.197Z,84.34
2023-05-17T05:36:53.193Z,83.59
2023-05-17T05:37:53.196Z,83.28
2023-05-17T05:38:53.198Z,82.56
2023-05-17T05:39:53.165Z,82.32
2023-05-17T05:40:53.262Z,80.99
2023-05-17T05:41:53.136Z,80.28
2023-05-17T05:42:53.146Z,80.69
2023-05-17T05:43:53.104Z,80.65
2023-05-17T05:44:53.097Z,79.83
2023-05-17T05:45:53.298Z,79.43
2023-05-17T05:46:53.085Z,79.43
2023-05-17T05:47:53.207Z,80.04
2023-05-17T05:48:53.073Z,79.59
2023-05-17T05:49:53.037Z,79.04
2023-05-17T05:50:53.029Z,78.84
2023-05-17T05:51:53.037Z,78.30
2023-05-17T05:52:56.252Z,77.27
2023-05-17T05:53:53.991Z,77.55
2023-05-17T05:54:52.978Z,77.61
2023-05-17T05:55:52.973Z,76.25
2023-05-17T05:56:52.969Z,75.43
2023-05-17T05:57:52.970Z,75.64
2023-05-17T05:58:52.931Z,74.82
2023-05-17T05:59:52.919Z,73.97
2023-05-17T06:00:52.926Z,74.28
2023-05-17T06:01:52.988Z,74.35
2023-05-17T06:02:52.935Z,73.54
2023-05-17T06:03:52.878Z,73.09
2023-05-17T06:04:52.880Z,72.17
2023-05-17T06:05:52.925Z,71.94
2023-05-17T06:06:52.982Z,72.14
2023-05-17T06:07:52.841Z,71.09
2023-05-17T06:08:52.819Z,71.23
2023-05-17T06:09:52.806Z,71.23
2023-05-17T06:10:52.831Z,71.09
2023-05-17T06:11:52.787Z,70.38
2023-05-17T06:12:52.795Z,70.18
2023-05-17T06:13:52.795Z,70.92
2023-05-17T06:14:52.748Z,71.03
2023-05-17T06:15:52.766Z,70.99
2023-05-17T06:16:52.727Z,70.48
2023-05-17T06:17:52.867Z,69.78
2023-05-17T06:18:52.788Z,69.57
2023-05-17T06:19:52.859Z,69.67
2023-05-17T06:20:52.681Z,70.35
2023-05-17T06:21:52.682Z,67.81
2023-05-17T06:22:52.665Z,67.81
2023-05-17T06:23:52.664Z,67.41
2023-05-17T06:24:52.771Z,67.41
2023-05-17T06:25:52.641Z,66.90
2023-05-17T06:26:52.629Z,67.10
2023-05-17T06:27:52.622Z,66.77
2023-05-17T06:28:52.602Z,66.49
2023-05-17T06:29:52.592Z,67.00
2023-05-17T06:30:52.569Z,67.00
2023-05-17T06:31:52.596Z,67.33
2023-05-17T06:32:52.577Z,66.60
2023-05-17T06:33:52.652Z,65.20
2023-05-17T06:34:52.542Z,65.41
2023-05-17T06:35:56.868Z,66.12
2023-05-17T06:36:53.527Z,66.02
2023-05-17T06:37:52.496Z,65.78
2023-05-17T06:38:52.473Z,65.68
2023-05-17T06:40:00.060Z,65.88
2023-05-17T06:40:53.462Z,64.97
2023-05-17T06:41:52.446Z,64.87
2023-05-17T06:42:52.455Z,64.97
2023-05-17T06:43:52.449Z,65.58
2023-05-17T06:44:52.416Z,66.86
2023-05-17T06:45:52.397Z,66.76
2023-05-17T06:46:52.380Z,68.32
2023-05-17T06:47:52.427Z,66.92
2023-05-17T06:48:52.502Z,66.82
2023-05-17T06:49:52.628Z,68.07
2023-05-17T06:50:52.368Z,68.44
2023-05-17T06:51:52.327Z,68.82
2023-05-17T06:52:52.315Z,67.43
2023-05-17T06:53:52.313Z,67.46
2023-05-17T06:54:52.307Z,68.85
2023-05-17T06:55:52.286Z,68.68
2023-05-17T06:56:52.291Z,69.23
2023-05-17T06:57:52.261Z,68.21
2023-05-17T06:58:52.250Z,68.34
2023-05-17T06:59:52.317Z,68.13
2023-05-17T07:00:52.221Z,68.31
2023-05-17T07:01:52.224Z,67.77
2023-05-17T07:02:52.295Z,67.05
2023-05-17T07:03:52.321Z,67.53
2023-05-17T07:04:52.207Z,66.28
2023-05-17T07:05:52.247Z,64.89
2023-05-17T07:06:52.172Z,64.99
2023-05-17T07:07:52.191Z,65.43
2023-05-17T07:08:52.166Z,64.92
2023-05-17T07:09:52.124Z,65.05
2023-05-17T07:10:52.705Z,66.75
2023-05-17T07:11:52.119Z,66.82
2023-05-17T07:12:52.101Z,68.01
2023-05-17T07:13:54.354Z,67.10
2023-05-17T07:14:52.089Z,66.79
2023-05-17T07:15:52.062Z,66.99
2023-05-17T07:16:52.053Z,66.38
2023-05-17T07:17:52.103Z,67.19
2023-05-17T07:18:52.083Z,66.35
2023-05-17T07:19:52.190Z,65.54
2023-05-17T07:20:52.019Z,65.06
2023-05-17T07:21:52.167Z,64.45
2023-05-17T07:22:52.078Z,65.47
2023-05-17T07:23:51.973Z,64.42
2023-05-17T07:24:51.983Z,65.26
2023-05-17T07:25:51.989Z,65.09
2023-05-17T07:26:52.653Z,64.89
2023-05-17T07:27:51.932Z,65.19
2023-05-17T07:28:51.917Z,65.83
2023-05-17T07:29:51.907Z,65.33
2023-05-17T07:30:51.898Z,65.46
2023-05-17T07:31:51.904Z,65.05
2023-05-17T07:32:51.923Z,67.29
2023-05-17T07:33:51.864Z,67.19
2023-05-17T07:34:51.864Z,67.22
2023-05-17T07:35:51.845Z,65.89
2023-05-17T07:36:51.825Z,67.83
2023-05-17T07:37:51.831Z,68.88
2023-05-17T07:38:51.822Z,68.78
2023-05-17T07:39:51.785Z,68.07
2023-05-17T07:40:51.783Z,68.17
2023-05-17T07:41:51.765Z,68.37
2023-05-17T07:42:51.761Z,68.13
2023-05-17T07:43:51.758Z,67.83
2023-05-17T07:44:51.767Z,66.00
2023-05-17T07:45:51.720Z,64.81
2023-05-17T07:46:52.737Z,64.81
2023-05-17T07:47:51.772Z,64.70
2023-05-17T07:48:51.914Z,64.94
2023-05-17T07:49:51.687Z,65.34
2023-05-17T07:50:51.688Z,65.45
2023-05-17T07:51:51.654Z,65.34
2023-05-17T07:52:51.644Z,65.25
2023-05-17T07:53:51.665Z,65.45
2023-05-17T07:54:51.631Z,65.45
2023-05-17T07:55:51.665Z,65.39
2023-05-17T07:56:51.622Z,64.64
2023-05-17T07:57:51.583Z,65.12
2023-05-17T07:58:51.586Z,65.39
2023-05-17T07:59:51.608Z,63.36
2023-05-17T08:00:51.554Z,63.13
2023-05-17T08:01:51.562Z,63.40
2023-05-17T08:02:51.600Z,61.78
2023-05-17T08:03:51.543Z,61.88
2023-05-17T08:04:51.543Z,63.00
2023-05-17T08:05:51.543Z,63.00
2023-05-17T08:06:51.500Z,63.40
2023-05-17T08:07:51.478Z,62.29
2023-05-17T08:08:51.465Z,60.69
2023-05-17T08:09:51.522Z,59.88
2023-05-17T08:10:51.445Z,61.60
2023-05-17T08:11:51.451Z,60.72
2023-05-17T08:12:51.420Z,62.01
2023-05-17T08:13:51.407Z,62.55
2023-05-17T08:14:51.406Z,63.02
2023-05-17T08:15:53.634Z,62.35
2023-05-17T08:16:52.681Z,63.16
2023-05-17T08:17:51.412Z,62.96
2023-05-17T08:18:51.520Z,61.63
2023-05-17T08:19:51.467Z,63.09
2023-05-17T08:20:51.326Z,62.37
2023-05-17T08:21:51.313Z,61.49
2023-05-17T08:22:51.325Z,62.43
2023-05-17T08:23:51.289Z,63.56
2023-05-17T08:24:51.289Z,64.47
2023-05-17T08:25:51.308Z,63.45
2023-05-17T08:26:51.269Z,63.24
2023-05-17T08:27:51.267Z,63.58
2023-05-17T08:28:51.242Z,61.52
2023-05-17T08:29:51.222Z,62.74
2023-05-17T08:30:51.241Z,63.32
2023-05-17T08:31:51.212Z,62.55
2023-05-17T08:32:51.298Z,64.04
2023-05-17T08:33:51.203Z,60.79
2023-05-17T08:34:51.192Z,59.24
2023-05-17T08:35:51.181Z,61.71
2023-05-17T08:36:51.169Z,61.51
2023-05-17T08:37:51.133Z,61.68
2023-05-17T08:38:51.141Z,61.30
2023-05-17T08:39:51.159Z,60.69
2023-05-17T08:40:51.108Z,60.41
2023-05-17T08:41:51.113Z,62.14
2023-05-17T08:42:51.094Z,62.37
2023-05-17T08:43:51.133Z,62.17
2023-05-17T08:44:51.063Z,61.66
2023-05-17T08:45:51.072Z,62.58
2023-05-17T08:46:51.039Z,60.41
2023-05-17T08:47:51.037Z,62.11
2023-05-17T08:48:51.043Z,61.17
2023-05-17T08:49:51.028Z,58.09
2023-05-17T08:50:51.012Z,59.79
2023-05-17T08:51:50.973Z,60.68
2023-05-17T08:52:51.039Z,59.56
2023-05-17T08:53:51.034Z,60.93
2023-05-17T08:54:50.945Z,59.07
2023-05-17T08:55:50.951Z,59.05
2023-05-17T08:56:50.917Z,60.43
2023-05-17T08:57:50.925Z,56.59
2023-05-17T08:58:57.157Z,57.67
2023-05-17T08:59:51.886Z,57.65
2023-05-17T09:00:50.900Z,58.07
2023-05-17T09:01:50.880Z,56.43
2023-05-17T09:02:50.950Z,56.53
2023-05-17T09:03:50.917Z,55.60
2023-05-17T09:04:50.878Z,57.85
2023-05-17T09:05:50.841Z,55.62
2023-05-17T09:06:50.812Z,53.63
2023-05-17T09:07:50.794Z,53.78
2023-05-17T09:08:50.786Z,53.91
2023-05-17T09:09:50.788Z,55.65
2023-05-17T09:10:50.782Z,57.50
2023-05-17T09:11:50.741Z,57.60
2023-05-17T09:12:50.744Z,56.62
2023-05-17T09:13:50.755Z,56.72
2023-05-17T09:14:50.740Z,56.85
2023-05-17T09:15:50.730Z,58.29
2023-05-17T09:16:50.692Z,59.31
2023-05-17T09:17:50.809Z,58.09
2023-05-17T09:18:50.885Z,56.77
2023-05-17T09:19:50.910Z,56.67
2023-05-17T09:20:50.645Z,59.39
2023-05-17T09:21:50.639Z,59.86
2023-05-17T09:22:50.620Z,60.55
2023-05-17T09:24:01.721Z,55.96
2023-05-17T09:24:51.593Z,53.98
2023-05-17T09:25:50.608Z,55.40
2023-05-17T09:26:50.581Z,57.33
2023-05-17T09:27:50.565Z,55.40
2023-05-17T09:28:50.557Z,57.76
2023-05-17T09:29:50.607Z,57.97
2023-05-17T09:30:50.560Z,57.76
2023-05-17T09:31:50.533Z,57.56
2023-05-17T09:32:50.557Z,56.74
2023-05-17T09:33:50.531Z,55.53
2023-05-17T09:34:50.488Z,56.11
2023-05-17T09:35:50.522Z,55.27
2023-05-17T09:36:50.468Z,57.58
2023-05-17T09:37:50.455Z,57.68
2023-05-17T09:38:50.444Z,55.85
2023-05-17T09:39:50.430Z,55.76
2023-05-17T09:40:50.435Z,56.77
2023-05-17T09:41:50.401Z,55.63
2023-05-17T09:42:50.402Z,55.70
2023-05-17T09:43:50.384Z,57.93
2023-05-17T09:44:50.372Z,56.59
2023-05-17T09:45:50.401Z,55.55
2023-05-17T09:46:50.387Z,55.93
2023-05-17T09:47:50.420Z,55.60
2023-05-17T09:48:50.456Z,51.86
2023-05-17T09:49:50.332Z,50.84
2023-05-17T09:50:50.319Z,51.45
2023-05-17T09:51:50.287Z,50.67
2023-05-17T09:52:50.318Z,49.86
2023-05-17T09:53:50.270Z,50.99
2023-05-17T09:54:50.257Z,53.78
2023-05-17T09:55:50.261Z,51.37
2023-05-17T09:56:50.250Z,53.40
2023-05-17T09:57:50.244Z,55.96
2023-05-17T09:58:50.251Z,55.76
2023-05-17T09:59:50.201Z,53.75
2023-05-17T10:00:50.198Z,52.44
2023-05-17T10:01:50.264Z,52.99
2023-05-17T10:02:50.285Z,55.40
2023-05-17T10:03:50.175Z,53.65
2023-05-17T10:04:50.210Z,53.85
2023-05-17T10:05:50.131Z,53.85
2023-05-17T10:06:52.292Z,57.58
2023-05-17T10:07:50.134Z,54.21
2023-05-17T10:08:50.116Z,53.50
2023-05-17T10:09:50.103Z,52.59
2023-05-17T10:10:50.075Z,54.99
2023-05-17T10:11:50.077Z,53.65
2023-05-17T10:12:50.061Z,53.96
2023-05-17T10:13:50.040Z,51.60
2023-05-17T10:14:50.119Z,51.17
2023-05-17T10:15:50.017Z,51.45
2023-05-17T10:16:50.051Z,51.35
2023-05-17T10:17:50.132Z,51.55
2023-05-17T10:18:50.821Z,50.44
2023-05-17T10:19:50.037Z,51.78
2023-05-17T10:20:49.979Z,52.89
2023-05-17T10:21:50.033Z,50.69
2023-05-17T10:22:50.014Z,52.61
2023-05-17T10:23:49.925Z,54.21
2023-05-17T10:24:49.919Z,52.19
2023-05-17T10:25:49.913Z,50.14
2023-05-17T10:26:49.926Z,51.37
2023-05-17T10:27:49.895Z,52.19
2023-05-17T10:28:49.872Z,51.17
2023-05-17T10:29:50.856Z,52.11
2023-05-17T10:30:49.866Z,53.83
2023-05-17T10:31:49.843Z,53.02
2023-05-17T10:32:49.949Z,53.42
2023-05-17T10:33:49.995Z,55.42
2023-05-17T10:35:01.346Z,55.73
2023-05-17T10:35:50.806Z,55.80
2023-05-17T10:36:49.805Z,51.83
2023-05-17T10:37:49.773Z,51.93
2023-05-17T10:38:49.785Z,55.65
2023-05-17T10:39:49.747Z,54.94
2023-05-17T10:40:49.741Z,52.61
2023-05-17T10:41:49.732Z,50.42
2023-05-17T10:42:49.734Z,51.96
2023-05-17T10:43:49.725Z,52.06
2023-05-17T10:44:49.710Z,51.55
2023-05-17T10:45:49.690Z,53.67
2023-05-17T10:46:49.675Z,50.95
2023-05-17T10:47:49.682Z,49.86
2023-05-17T10:48:49.698Z,50.57
2023-05-17T10:49:49.665Z,51.68
2023-05-17T10:51:00.733Z,53.12
2023-05-17T10:51:50.628Z,53.83
2023-05-17T10:52:49.663Z,53.83
2023-05-17T10:53:49.593Z,53.93
2023-05-17T10:54:49.608Z,53.45
2023-05-17T10:55:49.562Z,53.45
2023-05-17T10:56:49.582Z,52.94
2023-05-17T10:57:51.423Z,51.50
2023-05-17T10:58:49.542Z,54.03
2023-05-17T10:59:49.564Z,54.23
2023-05-17T11:00:49.547Z,51.32
2023-05-17T11:01:49.491Z,52.94
2023-05-17T11:02:49.574Z,54.26
2023-05-17T11:03:49.490Z,55.85
2023-05-17T11:04:49.494Z,53.52
2023-05-17T11:05:50.196Z,53.80
2023-05-17T11:06:49.507Z,53.07
2023-05-17T11:07:49.427Z,54.49
2023-05-17T11:08:49.460Z,51.03
2023-05-17T11:09:49.404Z,50.01
2023-05-17T11:10:49.399Z,49.22
2023-05-17T11:11:49.386Z,50.44
2023-05-17T11:12:49.376Z,48.85
2023-05-17T11:13:49.354Z,51.78
2023-05-17T11:14:49.376Z,54.91
2023-05-17T11:15:49.345Z,49.96
2023-05-17T11:16:49.350Z,51.98
2023-05-17T11:17:49.340Z,53.19
2023-05-17T11:18:49.434Z,53.38
2023-05-17T11:19:49.356Z,50.06
2023-05-17T11:20:49.506Z,50.97
2023-05-17T11:21:49.292Z,51.81
2023-05-17T11:22:49.258Z,52.61
2023-05-17T11:23:49.253Z,55.15
2023-05-17T11:24:49.235Z,53.80
2023-05-17T11:25:49.250Z,52.69
2023-05-17T11:26:49.233Z,53.60
2023-05-17T11:27:49.209Z,55.40
2023-05-17T11:28:49.199Z,55.57
2023-05-17T11:29:49.179Z,53.96
2023-05-17T11:30:49.192Z,52.14
2023-05-17T11:31:49.156Z,51.23
2023-05-17T11:32:49.186Z,51.71
2023-05-17T11:33:49.155Z,52.59
2023-05-17T11:34:49.133Z,51.76
2023-05-17T11:35:51.703Z,50.42
2023-05-17T11:36:49.126Z,50.10
2023-05-17T11:37:49.121Z,49.79
2023-05-17T11:38:52.267Z,48.41
2023-05-17T11:39:50.071Z,49.41
2023-05-17T11:40:49.075Z,49.64
2023-05-17T11:41:49.059Z,49.76
2023-05-17T11:42:49.105Z,48.35
2023-05-17T11:43:49.055Z,50.95
2023-05-17T11:44:49.018Z,51.66
2023-05-17T11:45:51.292Z,52.76
2023-05-17T11:46:49.002Z,50.35
2023-05-17T11:47:49.146Z,50.15
2023-05-17T11:48:49.017Z,48.37
2023-05-17T11:49:48.965Z,52.03
2023-05-17T11:50:48.976Z,54.05
2023-05-17T11:51:48.946Z,53.17
2023-05-17T11:52:48.926Z,51.07
2023-05-17T11:53:48.952Z,51.88
2023-05-17T11:54:48.905Z,53.09
2023-05-17T11:55:48.894Z,50.61
2023-05-17T11:56:48.891Z,51.04
2023-05-17T11:57:48.891Z,52.74
2023-05-17T11:58:48.854Z,53.65
2023-05-17T11:59:48.844Z,55.44
2023-05-17T12:00:48.865Z,51.90
2023-05-17T12:01:48.864Z,52.99
2023-05-17T12:02:48.831Z,53.70
2023-05-17T12:03:48.800Z,52.87
2023-05-17T12:04:48.876Z,51.63
2023-05-17T12:05:48.818Z,50.82
2023-05-17T12:06:48.887Z,53.42
2023-05-17T12:07:48.816Z,52.61
2023-05-17T12:08:48.744Z,50.52
2023-05-17T12:09:48.780Z,51.83
2023-05-17T12:10:48.721Z,52.03
2023-05-17T12:11:48.717Z,52.84
2023-05-17T12:12:48.710Z,53.55
2023-05-17T12:13:48.693Z,55.24
2023-05-17T12:14:48.686Z,53.70
2023-05-17T12:15:48.684Z,51.71
2023-05-17T12:16:48.667Z,51.28
2023-05-17T12:17:51.401Z,52.61
2023-05-17T12:18:48.856Z,53.45
2023-05-17T12:19:48.802Z,51.63
2023-05-17T12:20:48.607Z,51.45
2023-05-17T12:21:48.601Z,51.48
2023-05-17T12:22:48.640Z,52.72
2023-05-17T12:23:50.978Z,53.80
2023-05-17T12:24:48.662Z,53.58
2023-05-17T12:25:48.601Z,53.67
2023-05-17T12:26:48.551Z,52.76
2023-05-17T12:27:48.542Z,51.86
2023-05-17T12:28:48.531Z,54.05
2023-05-17T12:29:48.518Z,51.63
2023-05-17T12:30:48.515Z,53.75
2023-05-17T12:31:48.488Z,49.02
2023-05-17T12:32:48.532Z,50.44
2023-05-17T12:33:48.574Z,49.66
2023-05-17T12:34:48.447Z,48.85
2023-05-17T12:35:48.448Z,50.29
2023-05-17T12:36:48.426Z,50.11
2023-05-17T12:37:48.417Z,51.32
2023-05-17T12:38:48.412Z,54.05
2023-05-17T12:39:48.391Z,54.84
2023-05-17T12:40:48.400Z,56.73
2023-05-17T12:41:48.416Z,53.58
2023-05-17T12:42:48.357Z,54.96
2023-05-17T12:43:48.366Z,53.52
2023-05-17T12:44:48.335Z,51.12
2023-05-17T12:45:48.335Z,52.03
2023-05-17T12:46:48.312Z,49.93
2023-05-17T12:47:48.322Z,49.96
2023-05-17T12:48:48.331Z,52.08
2023-05-17T12:49:48.295Z,49.98
2023-05-17T12:50:48.266Z,51.20
2023-05-17T12:51:48.257Z,54.03
2023-05-17T12:52:48.250Z,54.74